sensor_id;sensor_type;location;lat;lon;timestamp;temperature;humidity
37974;DHT22;23796;51.458;7.000;2023-08-24T00:00:42;20.20;88.90
37974;DHT22;23796;51.458;7.000;2023-08-24T00:03:08;20.20;89.00
37974;DHT22;23796;51.458;7.000;2023-08-24T00:05:34;20.20;89.00
37974;DHT22;23796;51.458;7.000;2023-08-24T00:08:08;20.20;88.90
37974;DHT22;23796;51.458;7.000;2023-08-24T00:10:35;20.20;88.70
37974;DHT22;23796;51.458;7.000;2023-08-24T00:13:02;20.20;88.70
37974;DHT22;23796;51.458;7.000;2023-08-24T00:15:27;20.20;89.00
37974;DHT22;23796;51.458;7.000;2023-08-24T00:17:54;20.10;89.20
37974;DHT22;23796;51.458;7.000;2023-08-24T00:20:19;20.00;89.50
37974;DHT22;23796;51.458;7.000;2023-08-24T00:22:48;20.00;89.80
37974;DHT22;23796;51.458;7.000;2023-08-24T00:25:14;19.90;90.00
37974;DHT22;23796;51.458;7.000;2023-08-24T00:27:40;19.90;90.10
37974;DHT22;23796;51.458;7.000;2023-08-24T00:30:06;19.90;90.20
37974;DHT22;23796;51.458;7.000;2023-08-24T00:32:33;19.90;90.40
37974;DHT22;23796;51.458;7.000;2023-08-24T00:35:03;19.90;90.30
37974;DHT22;23796;51.458;7.000;2023-08-24T00:37:31;19.90;90.30
37974;DHT22;23796;51.458;7.000;2023-08-24T00:39:59;19.90;90.10
37974;DHT22;23796;51.458;7.000;2023-08-24T00:42:25;19.90;90.00
37974;DHT22;23796;51.458;7.000;2023-08-24T00:44:51;19.80;89.90
37974;DHT22;23796;51.458;7.000;2023-08-24T00:47:17;19.80;89.90
37974;DHT22;23796;51.458;7.000;2023-08-24T00:49:43;19.80;89.80
37974;DHT22;23796;51.458;7.000;2023-08-24T00:52:09;19.90;89.80
37974;DHT22;23796;51.458;7.000;2023-08-24T00:54:37;19.90;89.80
37974;DHT22;23796;51.458;7.000;2023-08-24T00:57:05;19.80;89.80
37974;DHT22;23796;51.458;7.000;2023-08-24T00:59:31;19.80;89.90
37974;DHT22;23796;51.458;7.000;2023-08-24T01:01:59;19.80;90.00
37974;DHT22;23796;51.458;7.000;2023-08-24T01:04:24;19.80;90.00
37974;DHT22;23796;51.458;7.000;2023-08-24T01:06:50;19.80;90.00
37974;DHT22;23796;51.458;7.000;2023-08-24T01:09:18;19.80;90.00
37974;DHT22;23796;51.458;7.000;2023-08-24T01:12:05;19.80;90.30
37974;DHT22;23796;51.458;7.000;2023-08-24T01:15:03;19.80;90.10
37974;DHT22;23796;51.458;7.000;2023-08-24T01:17:30;19.80;90.00
37974;DHT22;23796;51.458;7.000;2023-08-24T01:19:58;19.80;89.90
37974;DHT22;23796;51.458;7.000;2023-08-24T01:22:47;19.80;89.90
37974;DHT22;23796;51.458;7.000;2023-08-24T01:25:36;19.70;90.90
37974;DHT22;23796;51.458;7.000;2023-08-24T01:28:03;19.50;91.30
37974;DHT22;23796;51.458;7.000;2023-08-24T01:30:32;19.50;91.40
37974;DHT22;23796;51.458;7.000;2023-08-24T01:32:58;19.40;91.60
37974;DHT22;23796;51.458;7.000;2023-08-24T01:35:26;19.40;91.50
37974;DHT22;23796;51.458;7.000;2023-08-24T01:37:52;19.40;91.50
37974;DHT22;23796;51.458;7.000;2023-08-24T01:40:26;19.40;91.40
37974;DHT22;23796;51.458;7.000;2023-08-24T01:43:03;19.40;91.30
37974;DHT22;23796;51.458;7.000;2023-08-24T01:45:32;19.40;91.30
37974;DHT22;23796;51.458;7.000;2023-08-24T01:48:00;19.50;91.30
37974;DHT22;23796;51.458;7.000;2023-08-24T01:50:29;19.50;91.20
37974;DHT22;23796;51.458;7.000;2023-08-24T01:52:56;19.50;91.00
37974;DHT22;23796;51.458;7.000;2023-08-24T01:55:24;19.50;90.80
37974;DHT22;23796;51.458;7.000;2023-08-24T01:57:49;19.50;90.50
37974;DHT22;23796;51.458;7.000;2023-08-24T02:00:17;19.50;90.50
37974;DHT22;23796;51.458;7.000;2023-08-24T02:02:44;19.60;90.20
37974;DHT22;23796;51.458;7.000;2023-08-24T02:05:10;19.50;90.00
37974;DHT22;23796;51.458;7.000;2023-08-24T02:07:39;19.50;90.00
37974;DHT22;23796;51.458;7.000;2023-08-24T02:10:05;19.50;89.70
37974;DHT22;23796;51.458;7.000;2023-08-24T02:12:31;19.50;89.40
37974;DHT22;23796;51.458;7.000;2023-08-24T02:14:57;19.50;89.10
37974;DHT22;23796;51.458;7.000;2023-08-24T02:17:25;19.50;88.70
37974;DHT22;23796;51.458;7.000;2023-08-24T02:19:54;19.50;88.60
37974;DHT22;23796;51.458;7.000;2023-08-24T02:22:20;19.50;88.80
37974;DHT22;23796;51.458;7.000;2023-08-24T02:24:45;19.40;88.90
37974;DHT22;23796;51.458;7.000;2023-08-24T02:27:11;19.40;88.90
37974;DHT22;23796;51.458;7.000;2023-08-24T02:29:37;19.40;88.90
37974;DHT22;23796;51.458;7.000;2023-08-24T02:32:04;19.40;89.00
37974;DHT22;23796;51.458;7.000;2023-08-24T02:34:30;19.30;89.10
37974;DHT22;23796;51.458;7.000;2023-08-24T02:36:56;19.30;89.00
37974;DHT22;23796;51.458;7.000;2023-08-24T02:39:22;19.30;88.70
37974;DHT22;23796;51.458;7.000;2023-08-24T02:41:50;19.30;88.60
37974;DHT22;23796;51.458;7.000;2023-08-24T02:44:16;19.30;88.60
37974;DHT22;23796;51.458;7.000;2023-08-24T02:46:44;19.30;88.70
37974;DHT22;23796;51.458;7.000;2023-08-24T02:49:10;19.20;88.40
37974;DHT22;23796;51.458;7.000;2023-08-24T02:51:35;19.30;88.30
37974;DHT22;23796;51.458;7.000;2023-08-24T02:54:01;19.30;87.90
37974;DHT22;23796;51.458;7.000;2023-08-24T02:56:27;19.40;87.70
37974;DHT22;23796;51.458;7.000;2023-08-24T02:58:52;19.40;87.40
37974;DHT22;23796;51.458;7.000;2023-08-24T03:01:18;19.50;87.30
37974;DHT22;23796;51.458;7.000;2023-08-24T03:03:44;19.50;87.10
37974;DHT22;23796;51.458;7.000;2023-08-24T03:06:09;19.50;87.00
37974;DHT22;23796;51.458;7.000;2023-08-24T03:08:35;19.50;87.00
37974;DHT22;23796;51.458;7.000;2023-08-24T03:11:02;19.40;87.00
37974;DHT22;23796;51.458;7.000;2023-08-24T03:13:28;19.40;87.10
37974;DHT22;23796;51.458;7.000;2023-08-24T03:15:54;19.40;88.10
37974;DHT22;23796;51.458;7.000;2023-08-24T03:18:22;19.50;87.90
37974;DHT22;23796;51.458;7.000;2023-08-24T03:20:49;19.50;87.80
37974;DHT22;23796;51.458;7.000;2023-08-24T03:23:15;19.50;87.80
37974;DHT22;23796;51.458;7.000;2023-08-24T03:25:42;19.50;87.60
37974;DHT22;23796;51.458;7.000;2023-08-24T03:28:08;19.50;87.60
37974;DHT22;23796;51.458;7.000;2023-08-24T03:30:39;19.40;89.80
37974;DHT22;23796;51.458;7.000;2023-08-24T03:33:05;19.40;89.90
37974;DHT22;23796;51.458;7.000;2023-08-24T03:35:32;19.40;90.00
37974;DHT22;23796;51.458;7.000;2023-08-24T03:37:58;19.40;91.00
37974;DHT22;23796;51.458;7.000;2023-08-24T03:40:23;19.30;91.30
37974;DHT22;23796;51.458;7.000;2023-08-24T03:42:50;19.20;91.40
37974;DHT22;23796;51.458;7.000;2023-08-24T03:45:15;19.20;91.90
37974;DHT22;23796;51.458;7.000;2023-08-24T03:47:41;19.10;92.00
37974;DHT22;23796;51.458;7.000;2023-08-24T03:50:07;19.10;92.00
37974;DHT22;23796;51.458;7.000;2023-08-24T03:52:33;19.10;92.10
37974;DHT22;23796;51.458;7.000;2023-08-24T03:54:59;19.10;92.10
37974;DHT22;23796;51.458;7.000;2023-08-24T03:57:24;19.10;92.10
37974;DHT22;23796;51.458;7.000;2023-08-24T03:59:50;19.10;92.00
37974;DHT22;23796;51.458;7.000;2023-08-24T04:02:16;19.20;91.70
37974;DHT22;23796;51.458;7.000;2023-08-24T04:04:44;19.20;91.70
37974;DHT22;23796;51.458;7.000;2023-08-24T04:07:09;19.20;91.40
37974;DHT22;23796;51.458;7.000;2023-08-24T04:09:37;19.30;91.30
37974;DHT22;23796;51.458;7.000;2023-08-24T04:12:03;19.40;91.00
37974;DHT22;23796;51.458;7.000;2023-08-24T04:14:31;19.50;90.50
37974;DHT22;23796;51.458;7.000;2023-08-24T04:16:59;19.60;90.40
37974;DHT22;23796;51.458;7.000;2023-08-24T04:19:24;19.60;90.60
37974;DHT22;23796;51.458;7.000;2023-08-24T04:21:50;19.70;91.20
37974;DHT22;23796;51.458;7.000;2023-08-24T04:24:16;19.70;90.60
37974;DHT22;23796;51.458;7.000;2023-08-24T04:26:41;19.80;90.50
37974;DHT22;23796;51.458;7.000;2023-08-24T04:29:07;19.80;90.50
37974;DHT22;23796;51.458;7.000;2023-08-24T04:31:32;19.80;91.00
37974;DHT22;23796;51.458;7.000;2023-08-24T04:34:00;19.90;91.90
37974;DHT22;23796;51.458;7.000;2023-08-24T04:36:26;19.80;92.10
37974;DHT22;23796;51.458;7.000;2023-08-24T04:38:51;19.80;92.00
37974;DHT22;23796;51.458;7.000;2023-08-24T04:41:17;19.80;93.40
37974;DHT22;23796;51.458;7.000;2023-08-24T04:43:42;19.80;93.90
37974;DHT22;23796;51.458;7.000;2023-08-24T04:46:08;19.80;93.40
37974;DHT22;23796;51.458;7.000;2023-08-24T04:48:34;19.80;93.40
37974;DHT22;23796;51.458;7.000;2023-08-24T04:51:01;19.80;93.90
37974;DHT22;23796;51.458;7.000;2023-08-24T04:53:27;19.80;92.50
37974;DHT22;23796;51.458;7.000;2023-08-24T04:55:53;19.90;91.70
37974;DHT22;23796;51.458;7.000;2023-08-24T04:58:19;19.90;91.70
37974;DHT22;23796;51.458;7.000;2023-08-24T05:00:48;19.90;91.10
37974;DHT22;23796;51.458;7.000;2023-08-24T05:03:14;19.90;90.50
37974;DHT22;23796;51.458;7.000;2023-08-24T05:05:44;19.90;90.00
37974;DHT22;23796;51.458;7.000;2023-08-24T05:08:09;19.90;89.90
37974;DHT22;23796;51.458;7.000;2023-08-24T05:10:37;19.90;89.80
37974;DHT22;23796;51.458;7.000;2023-08-24T05:13:03;19.90;89.50
37974;DHT22;23796;51.458;7.000;2023-08-24T05:15:29;19.90;89.10
37974;DHT22;23796;51.458;7.000;2023-08-24T05:17:55;19.80;88.30
37974;DHT22;23796;51.458;7.000;2023-08-24T05:20:25;19.90;88.20
37974;DHT22;23796;51.458;7.000;2023-08-24T05:22:51;19.90;88.40
37974;DHT22;23796;51.458;7.000;2023-08-24T05:25:20;19.90;88.30
37974;DHT22;23796;51.458;7.000;2023-08-24T05:27:46;19.90;88.00
37974;DHT22;23796;51.458;7.000;2023-08-24T05:30:12;20.00;87.20
37974;DHT22;23796;51.458;7.000;2023-08-24T05:32:38;20.10;85.80
37974;DHT22;23796;51.458;7.000;2023-08-24T05:35:08;20.10;85.30
37974;DHT22;23796;51.458;7.000;2023-08-24T05:37:37;20.20;85.00
37974;DHT22;23796;51.458;7.000;2023-08-24T05:40:03;20.20;84.80
37974;DHT22;23796;51.458;7.000;2023-08-24T05:42:30;20.20;84.70
37974;DHT22;23796;51.458;7.000;2023-08-24T05:44:58;20.20;85.00
37974;DHT22;23796;51.458;7.000;2023-08-24T05:47:23;20.30;84.90
37974;DHT22;23796;51.458;7.000;2023-08-24T05:49:49;20.30;84.90
37974;DHT22;23796;51.458;7.000;2023-08-24T05:52:17;20.30;85.00
37974;DHT22;23796;51.458;7.000;2023-08-24T05:54:42;20.30;85.30
37974;DHT22;23796;51.458;7.000;2023-08-24T05:57:08;20.30;85.50
37974;DHT22;23796;51.458;7.000;2023-08-24T05:59:34;20.30;85.90
37974;DHT22;23796;51.458;7.000;2023-08-24T06:02:00;20.40;86.10
37974;DHT22;23796;51.458;7.000;2023-08-24T06:04:26;20.40;86.00
37974;DHT22;23796;51.458;7.000;2023-08-24T06:06:51;20.40;85.90
37974;DHT22;23796;51.458;7.000;2023-08-24T06:09:17;20.40;85.70
37974;DHT22;23796;51.458;7.000;2023-08-24T06:11:43;20.50;85.50
37974;DHT22;23796;51.458;7.000;2023-08-24T06:14:08;20.50;85.30
37974;DHT22;23796;51.458;7.000;2023-08-24T06:16:34;20.50;85.10
37974;DHT22;23796;51.458;7.000;2023-08-24T06:19:01;20.50;85.00
37974;DHT22;23796;51.458;7.000;2023-08-24T06:21:29;20.40;85.10
37974;DHT22;23796;51.458;7.000;2023-08-24T06:23:54;20.40;85.60
37974;DHT22;23796;51.458;7.000;2023-08-24T06:26:22;20.30;85.90
37974;DHT22;23796;51.458;7.000;2023-08-24T06:28:50;20.20;87.50
37974;DHT22;23796;51.458;7.000;2023-08-24T06:31:16;20.00;88.70
37974;DHT22;23796;51.458;7.000;2023-08-24T06:33:41;19.90;89.60
37974;DHT22;23796;51.458;7.000;2023-08-24T06:36:07;19.80;89.90
37974;DHT22;23796;51.458;7.000;2023-08-24T06:38:33;19.70;90.20
37974;DHT22;23796;51.458;7.000;2023-08-24T06:40:59;19.70;90.60
37974;DHT22;23796;51.458;7.000;2023-08-24T06:43:25;19.80;90.00
37974;DHT22;23796;51.458;7.000;2023-08-24T06:45:51;19.80;90.10
37974;DHT22;23796;51.458;7.000;2023-08-24T06:48:16;19.70;90.50
37974;DHT22;23796;51.458;7.000;2023-08-24T06:50:43;19.60;91.00
37974;DHT22;23796;51.458;7.000;2023-08-24T06:53:09;19.60;91.30
37974;DHT22;23796;51.458;7.000;2023-08-24T06:55:34;19.60;91.60
37974;DHT22;23796;51.458;7.000;2023-08-24T06:58:00;19.70;91.50
37974;DHT22;23796;51.458;7.000;2023-08-24T07:00:25;19.80;90.70
37974;DHT22;23796;51.458;7.000;2023-08-24T07:02:51;19.80;89.60
37974;DHT22;23796;51.458;7.000;2023-08-24T07:05:17;19.90;89.60
37974;DHT22;23796;51.458;7.000;2023-08-24T07:07:46;19.90;89.30
37974;DHT22;23796;51.458;7.000;2023-08-24T07:10:14;20.00;89.90
37974;DHT22;23796;51.458;7.000;2023-08-24T07:12:40;20.00;90.00
37974;DHT22;23796;51.458;7.000;2023-08-24T07:15:07;20.10;90.00
37974;DHT22;23796;51.458;7.000;2023-08-24T07:17:33;20.10;89.80
37974;DHT22;23796;51.458;7.000;2023-08-24T07:19:58;20.20;89.80
37974;DHT22;23796;51.458;7.000;2023-08-24T07:22:26;20.30;89.40
37974;DHT22;23796;51.458;7.000;2023-08-24T07:24:52;20.30;89.40
37974;DHT22;23796;51.458;7.000;2023-08-24T07:27:18;20.40;89.00
37974;DHT22;23796;51.458;7.000;2023-08-24T07:29:44;20.50;89.10
37974;DHT22;23796;51.458;7.000;2023-08-24T07:32:10;20.50;88.70
37974;DHT22;23796;51.458;7.000;2023-08-24T07:34:38;20.60;88.10
37974;DHT22;23796;51.458;7.000;2023-08-24T07:37:06;20.70;87.70
37974;DHT22;23796;51.458;7.000;2023-08-24T07:39:32;20.80;87.90
37974;DHT22;23796;51.458;7.000;2023-08-24T07:41:58;20.90;87.40
37974;DHT22;23796;51.458;7.000;2023-08-24T07:44:23;21.10;87.30
37974;DHT22;23796;51.458;7.000;2023-08-24T07:46:49;21.20;87.30
37974;DHT22;23796;51.458;7.000;2023-08-24T07:49:15;21.30;87.20
37974;DHT22;23796;51.458;7.000;2023-08-24T07:51:40;21.40;86.80
37974;DHT22;23796;51.458;7.000;2023-08-24T07:54:08;21.60;86.20
37974;DHT22;23796;51.458;7.000;2023-08-24T07:56:34;21.70;86.00
37974;DHT22;23796;51.458;7.000;2023-08-24T07:58:59;21.70;86.30
37974;DHT22;23796;51.458;7.000;2023-08-24T08:01:27;21.80;86.20
37974;DHT22;23796;51.458;7.000;2023-08-24T08:03:53;21.90;86.00
37974;DHT22;23796;51.458;7.000;2023-08-24T08:06:19;22.00;86.00
37974;DHT22;23796;51.458;7.000;2023-08-24T08:08:44;22.10;85.50
37974;DHT22;23796;51.458;7.000;2023-08-24T08:11:12;22.20;84.50
37974;DHT22;23796;51.458;7.000;2023-08-24T08:13:38;22.30;84.00
37974;DHT22;23796;51.458;7.000;2023-08-24T08:16:05;22.40;82.90
37974;DHT22;23796;51.458;7.000;2023-08-24T08:18:32;22.50;82.10
37974;DHT22;23796;51.458;7.000;2023-08-24T08:21:01;22.60;81.00
37974;DHT22;23796;51.458;7.000;2023-08-24T08:23:29;22.70;81.20
37974;DHT22;23796;51.458;7.000;2023-08-24T08:25:55;22.80;80.80
37974;DHT22;23796;51.458;7.000;2023-08-24T08:28:23;22.90;80.80
37974;DHT22;23796;51.458;7.000;2023-08-24T08:30:48;23.00;80.60
37974;DHT22;23796;51.458;7.000;2023-08-24T08:33:16;23.10;80.40
37974;DHT22;23796;51.458;7.000;2023-08-24T08:35:43;23.20;80.60
37974;DHT22;23796;51.458;7.000;2023-08-24T08:38:09;23.30;79.80
37974;DHT22;23796;51.458;7.000;2023-08-24T08:40:37;23.40;79.40
37974;DHT22;23796;51.458;7.000;2023-08-24T08:43:03;23.60;78.90
37974;DHT22;23796;51.458;7.000;2023-08-24T08:45:29;23.70;78.90
37974;DHT22;23796;51.458;7.000;2023-08-24T08:48:03;23.80;79.10
37974;DHT22;23796;51.458;7.000;2023-08-24T08:50:32;23.90;78.70
37974;DHT22;23796;51.458;7.000;2023-08-24T08:53:00;24.00;78.40
37974;DHT22;23796;51.458;7.000;2023-08-24T08:55:27;24.00;77.70
37974;DHT22;23796;51.458;7.000;2023-08-24T08:58:00;24.10;77.30
37974;DHT22;23796;51.458;7.000;2023-08-24T09:00:26;24.20;77.10
37974;DHT22;23796;51.458;7.000;2023-08-24T09:02:53;24.30;77.20
37974;DHT22;23796;51.458;7.000;2023-08-24T09:05:19;24.40;76.90
37974;DHT22;23796;51.458;7.000;2023-08-24T09:07:46;24.50;76.70
37974;DHT22;23796;51.458;7.000;2023-08-24T09:10:13;24.60;76.70
37974;DHT22;23796;51.458;7.000;2023-08-24T09:12:38;24.70;76.00
37974;DHT22;23796;51.458;7.000;2023-08-24T09:15:05;24.80;75.80
37974;DHT22;23796;51.458;7.000;2023-08-24T09:17:32;24.90;76.10
37974;DHT22;23796;51.458;7.000;2023-08-24T09:19:59;25.00;75.10
37974;DHT22;23796;51.458;7.000;2023-08-24T09:22:25;25.10;75.30
37974;DHT22;23796;51.458;7.000;2023-08-24T09:24:51;25.20;74.90
37974;DHT22;23796;51.458;7.000;2023-08-24T09:27:20;25.30;74.70
37974;DHT22;23796;51.458;7.000;2023-08-24T09:29:53;25.50;73.70
37974;DHT22;23796;51.458;7.000;2023-08-24T09:32:24;25.60;72.80
37974;DHT22;23796;51.458;7.000;2023-08-24T09:34:55;25.70;73.00
37974;DHT22;23796;51.458;7.000;2023-08-24T09:37:23;25.80;73.20
37974;DHT22;23796;51.458;7.000;2023-08-24T09:39:49;26.00;72.90
37974;DHT22;23796;51.458;7.000;2023-08-24T09:42:24;26.10;72.60
37974;DHT22;23796;51.458;7.000;2023-08-24T09:44:51;26.20;72.20
37974;DHT22;23796;51.458;7.000;2023-08-24T09:47:17;26.30;71.40
37974;DHT22;23796;51.458;7.000;2023-08-24T09:49:42;26.40;71.50
37974;DHT22;23796;51.458;7.000;2023-08-24T09:52:10;26.50;71.40
37974;DHT22;23796;51.458;7.000;2023-08-24T09:54:37;26.60;71.10
37974;DHT22;23796;51.458;7.000;2023-08-24T09:57:05;26.70;70.60
37974;DHT22;23796;51.458;7.000;2023-08-24T09:59:32;26.80;70.80
37974;DHT22;23796;51.458;7.000;2023-08-24T10:02:00;26.90;70.40
37974;DHT22;23796;51.458;7.000;2023-08-24T10:04:35;27.00;70.00
37974;DHT22;23796;51.458;7.000;2023-08-24T10:07:08;27.10;69.90
37974;DHT22;23796;51.458;7.000;2023-08-24T10:09:45;27.10;69.40
37974;DHT22;23796;51.458;7.000;2023-08-24T10:12:13;27.20;69.00
37974;DHT22;23796;51.458;7.000;2023-08-24T10:15:06;27.20;68.70
37974;DHT22;23796;51.458;7.000;2023-08-24T10:17:37;27.30;68.20
37974;DHT22;23796;51.458;7.000;2023-08-24T10:20:05;27.30;68.70
37974;DHT22;23796;51.458;7.000;2023-08-24T10:22:35;27.30;68.50
37974;DHT22;23796;51.458;7.000;2023-08-24T10:25:06;27.40;67.90
37974;DHT22;23796;51.458;7.000;2023-08-24T10:27:35;27.50;68.50
37974;DHT22;23796;51.458;7.000;2023-08-24T10:30:01;27.60;68.30
37974;DHT22;23796;51.458;7.000;2023-08-24T10:32:30;27.80;68.20
37974;DHT22;23796;51.458;7.000;2023-08-24T10:34:58;28.00;67.70
37974;DHT22;23796;51.458;7.000;2023-08-24T10:37:27;28.10;67.60
37974;DHT22;23796;51.458;7.000;2023-08-24T10:39:53;28.30;67.60
37974;DHT22;23796;51.458;7.000;2023-08-24T10:42:21;28.50;66.70
37974;DHT22;23796;51.458;7.000;2023-08-24T10:44:47;28.50;65.80
37974;DHT22;23796;51.458;7.000;2023-08-24T10:47:14;28.70;66.00
37974;DHT22;23796;51.458;7.000;2023-08-24T10:49:41;28.80;65.80
37974;DHT22;23796;51.458;7.000;2023-08-24T10:52:23;28.80;65.60
37974;DHT22;23796;51.458;7.000;2023-08-24T10:54:55;28.90;65.20
37974;DHT22;23796;51.458;7.000;2023-08-24T10:57:37;29.00;65.40
37974;DHT22;23796;51.458;7.000;2023-08-24T11:02:46;29.10;64.50
37974;DHT22;23796;51.458;7.000;2023-08-24T11:05:29;29.20;64.60
37974;DHT22;23796;51.458;7.000;2023-08-24T11:08:05;29.30;64.50
37974;DHT22;23796;51.458;7.000;2023-08-24T11:23:10;29.60;63.00
37974;DHT22;23796;51.458;7.000;2023-08-24T11:25:36;29.70;63.10
37974;DHT22;23796;51.458;7.000;2023-08-24T11:28:03;29.80;62.60
37974;DHT22;23796;51.458;7.000;2023-08-24T11:30:35;29.80;63.30
37974;DHT22;23796;51.458;7.000;2023-08-24T11:33:02;29.90;62.80
37974;DHT22;23796;51.458;7.000;2023-08-24T11:35:29;29.90;62.70
37974;DHT22;23796;51.458;7.000;2023-08-24T11:37:55;29.80;62.90
37974;DHT22;23796;51.458;7.000;2023-08-24T11:40:22;29.80;62.70
37974;DHT22;23796;51.458;7.000;2023-08-24T11:42:54;29.80;63.00
37974;DHT22;23796;51.458;7.000;2023-08-24T11:45:20;29.60;63.20
37974;DHT22;23796;51.458;7.000;2023-08-24T11:47:47;29.40;63.70
37974;DHT22;23796;51.458;7.000;2023-08-24T11:50:13;29.20;64.20
37974;DHT22;23796;51.458;7.000;2023-08-24T11:52:39;29.10;64.50
37974;DHT22;23796;51.458;7.000;2023-08-24T11:55:06;29.10;64.50
37974;DHT22;23796;51.458;7.000;2023-08-24T11:57:38;29.20;64.30
37974;DHT22;23796;51.458;7.000;2023-08-24T12:00:04;29.20;64.20
37974;DHT22;23796;51.458;7.000;2023-08-24T12:02:31;29.20;64.40
37974;DHT22;23796;51.458;7.000;2023-08-24T12:04:57;29.40;64.40
37974;DHT22;23796;51.458;7.000;2023-08-24T12:07:25;29.50;64.70
37974;DHT22;23796;51.458;7.000;2023-08-24T12:09:54;29.50;65.20
37974;DHT22;23796;51.458;7.000;2023-08-24T12:12:21;29.50;65.40
37974;DHT22;23796;51.458;7.000;2023-08-24T12:14:51;29.50;65.60
37974;DHT22;23796;51.458;7.000;2023-08-24T12:17:17;29.50;65.20
37974;DHT22;23796;51.458;7.000;2023-08-24T12:20:05;29.30;65.20
37974;DHT22;23796;51.458;7.000;2023-08-24T12:22:38;29.30;65.40
37974;DHT22;23796;51.458;7.000;2023-08-24T12:25:04;29.20;65.90
37974;DHT22;23796;51.458;7.000;2023-08-24T12:27:33;29.10;66.30
37974;DHT22;23796;51.458;7.000;2023-08-24T12:30:02;29.10;66.50
37974;DHT22;23796;51.458;7.000;2023-08-24T12:32:48;29.10;66.50
37974;DHT22;23796;51.458;7.000;2023-08-24T12:35:18;29.10;66.50
37974;DHT22;23796;51.458;7.000;2023-08-24T12:37:44;29.20;66.40
37974;DHT22;23796;51.458;7.000;2023-08-24T12:40:10;29.20;66.40
37974;DHT22;23796;51.458;7.000;2023-08-24T12:42:36;29.10;66.30
37974;DHT22;23796;51.458;7.000;2023-08-24T12:45:05;29.00;66.50
37974;DHT22;23796;51.458;7.000;2023-08-24T12:47:30;28.70;67.10
37974;DHT22;23796;51.458;7.000;2023-08-24T12:49:56;28.40;68.30
37974;DHT22;23796;51.458;7.000;2023-08-24T12:52:22;28.30;69.50
37974;DHT22;23796;51.458;7.000;2023-08-24T12:54:50;28.20;70.50
37974;DHT22;23796;51.458;7.000;2023-08-24T12:57:15;28.10;71.20
37974;DHT22;23796;51.458;7.000;2023-08-24T12:59:41;28.00;71.40
37974;DHT22;23796;51.458;7.000;2023-08-24T13:02:06;27.90;71.20
37974;DHT22;23796;51.458;7.000;2023-08-24T13:04:32;27.80;71.50
37974;DHT22;23796;51.458;7.000;2023-08-24T13:06:58;27.70;72.10
37974;DHT22;23796;51.458;7.000;2023-08-24T13:09:28;27.70;72.60
37974;DHT22;23796;51.458;7.000;2023-08-24T13:11:56;27.70;72.60
37974;DHT22;23796;51.458;7.000;2023-08-24T13:14:22;27.80;72.50
37974;DHT22;23796;51.458;7.000;2023-08-24T13:16:48;27.90;72.30
37974;DHT22;23796;51.458;7.000;2023-08-24T13:19:14;28.00;72.30
37974;DHT22;23796;51.458;7.000;2023-08-24T13:21:40;28.20;72.40
37974;DHT22;23796;51.458;7.000;2023-08-24T13:24:05;28.30;72.10
37974;DHT22;23796;51.458;7.000;2023-08-24T13:26:31;28.20;71.80
37974;DHT22;23796;51.458;7.000;2023-08-24T13:28:57;28.30;71.00
37974;DHT22;23796;51.458;7.000;2023-08-24T13:31:28;28.20;71.10
37974;DHT22;23796;51.458;7.000;2023-08-24T13:33:57;28.20;71.30
37974;DHT22;23796;51.458;7.000;2023-08-24T13:36:23;28.20;71.20
37974;DHT22;23796;51.458;7.000;2023-08-24T13:38:48;28.20;71.50
37974;DHT22;23796;51.458;7.000;2023-08-24T13:41:15;28.30;71.20
37974;DHT22;23796;51.458;7.000;2023-08-24T13:43:41;28.40;71.30
37974;DHT22;23796;51.458;7.000;2023-08-24T13:46:09;28.40;71.90
37974;DHT22;23796;51.458;7.000;2023-08-24T13:48:35;28.50;72.30
37974;DHT22;23796;51.458;7.000;2023-08-24T13:51:01;28.40;72.60
37974;DHT22;23796;51.458;7.000;2023-08-24T13:53:27;28.40;72.70
37974;DHT22;23796;51.458;7.000;2023-08-24T13:55:52;28.40;72.30
37974;DHT22;23796;51.458;7.000;2023-08-24T13:58:20;28.30;72.50
37974;DHT22;23796;51.458;7.000;2023-08-24T14:00:46;28.20;72.70
37974;DHT22;23796;51.458;7.000;2023-08-24T14:03:11;28.10;72.50
37974;DHT22;23796;51.458;7.000;2023-08-24T14:05:40;28.00;72.20
37974;DHT22;23796;51.458;7.000;2023-08-24T14:08:06;28.00;72.50
37974;DHT22;23796;51.458;7.000;2023-08-24T14:10:35;27.80;73.20
37974;DHT22;23796;51.458;7.000;2023-08-24T14:13:01;27.70;73.80
37974;DHT22;23796;51.458;7.000;2023-08-24T14:15:26;27.50;74.40
37974;DHT22;23796;51.458;7.000;2023-08-24T14:17:52;27.50;75.00
37974;DHT22;23796;51.458;7.000;2023-08-24T14:20:17;27.50;75.00
37974;DHT22;23796;51.458;7.000;2023-08-24T14:22:47;27.60;75.10
37974;DHT22;23796;51.458;7.000;2023-08-24T14:25:14;27.50;75.60
37974;DHT22;23796;51.458;7.000;2023-08-24T14:27:40;27.30;76.30
37974;DHT22;23796;51.458;7.000;2023-08-24T14:30:07;27.30;76.60
37974;DHT22;23796;51.458;7.000;2023-08-24T14:32:38;27.30;76.70
37974;DHT22;23796;51.458;7.000;2023-08-24T14:35:04;27.20;77.20
37974;DHT22;23796;51.458;7.000;2023-08-24T14:37:31;27.20;77.30
37974;DHT22;23796;51.458;7.000;2023-08-24T14:39:59;27.30;77.30
37974;DHT22;23796;51.458;7.000;2023-08-24T14:42:24;27.10;77.90
37974;DHT22;23796;51.458;7.000;2023-08-24T14:44:50;27.10;78.30
37974;DHT22;23796;51.458;7.000;2023-08-24T14:47:15;27.00;78.70
37974;DHT22;23796;51.458;7.000;2023-08-24T14:49:41;26.90;79.20
37974;DHT22;23796;51.458;7.000;2023-08-24T14:52:07;26.90;79.30
37974;DHT22;23796;51.458;7.000;2023-08-24T14:54:32;26.80;79.70
37974;DHT22;23796;51.458;7.000;2023-08-24T14:56:58;26.80;80.00
37974;DHT22;23796;51.458;7.000;2023-08-24T14:59:27;26.80;80.30
37974;DHT22;23796;51.458;7.000;2023-08-24T15:01:53;26.70;80.60
37974;DHT22;23796;51.458;7.000;2023-08-24T15:04:19;26.70;81.00
37974;DHT22;23796;51.458;7.000;2023-08-24T15:06:44;26.60;81.20
37974;DHT22;23796;51.458;7.000;2023-08-24T15:09:10;26.50;81.50
37974;DHT22;23796;51.458;7.000;2023-08-24T15:11:36;26.50;81.80
37974;DHT22;23796;51.458;7.000;2023-08-24T15:14:04;26.40;82.10
37974;DHT22;23796;51.458;7.000;2023-08-24T15:16:30;26.40;82.70
37974;DHT22;23796;51.458;7.000;2023-08-24T15:18:55;26.30;83.10
37974;DHT22;23796;51.458;7.000;2023-08-24T15:21:21;26.10;83.40
37974;DHT22;23796;51.458;7.000;2023-08-24T15:23:46;26.00;84.10
37974;DHT22;23796;51.458;7.000;2023-08-24T15:26:12;25.90;84.50
37974;DHT22;23796;51.458;7.000;2023-08-24T15:29:13;25.90;84.20
37974;DHT22;23796;51.458;7.000;2023-08-24T15:31:43;25.70;84.00
37974;DHT22;23796;51.458;7.000;2023-08-24T15:34:12;25.50;84.00
37974;DHT22;23796;51.458;7.000;2023-08-24T15:36:37;25.30;84.00
37974;DHT22;23796;51.458;7.000;2023-08-24T15:39:05;25.20;84.20
37974;DHT22;23796;51.458;7.000;2023-08-24T15:41:31;25.20;84.30
37974;DHT22;23796;51.458;7.000;2023-08-24T15:43:56;25.20;84.50
37974;DHT22;23796;51.458;7.000;2023-08-24T15:46:22;25.00;84.80